Relevés horaires Beauvechain (Belgique)


Relevés horaires à Beauvechain - Vendredi 26 Août 2016
Heure UTC1 Température [°C] Vent [km/h] Hum. [%] Pres.4 [hPa] Visi. [Km] Nébu. [octa] Préc.5 [mm] Cond.
2m. Res. Ros. Dir.2 Vit. Moy. Raf.3
23:00 19.2 19.2 17.4 NNO 0.0 0.0 0.0 89 1019.2(0.5/3h) 13 -- -- --
22:00 19.6 19.6 17.5 NNO 0.0 0.0 0.0 88 1019.2(1.2/3h) 14 -- -- --
21:00 20.5 20.5 17.8 NNO 0.0 0.0 0.0 85 1019.1(1.3/3h) 18 -- -- --
20:00 21.9 21.9 18.6 NNO 0.0 0.0 0.0 82 1018.7(1.1/3h) 17 -- -- --
19:00 23.1 23.1 19.3 NNO 0.0 0.0 0.0 79 1017.8(0.6/3h) 14 -- -- --
18:00 25.1 25.1 19.8 NNO 0.0 0.0 0.0 72 1017.6(0.3/3h) 14 -- 0/0h
--
17:00 26.7 26.7 20.1 NNO 0.0 0.0 0.0 67 1017.2(-0.1/3h) 12 -- -- --
16:00 28.3 28.3 19.2 NNO 0.0 0.0 0.0 58 1016.8(-0.2/3h) 20 -- -- --
15:00 28.5 28.5 18.1 N 3.7 0.0 0.0 53 1017(-0.1/3h) 20 2/8 -- --
14:00 28.6 28.6 18.2 NNO 3.7 0.0 0.0 53 1017.2(0.5/3h) 15 2/8 -- --
13:00 28.1 28.1 18.4 NNE 5.6 0.0 0.0 56 1017.2(0.5/3h) 15 2/8 -- --
12:00 27.2 27.2 18.8 N 3.7 5.6 7.4 60 1017.2(0.9/3h) 9 1/8 0/0h
--
11:00 26.3 26.3 17.9 N 3.7 5.6 7.4 60 1016.7(1.1/3h) 7 1/8 -- --
10:00 26.0 26.0 17.6 N 3.7 3.7 5.6 60 1016.7(0.9/3h) 7 1/8 -- --
09:00 25.5 25.5 17.9 NNO 3.7 -- 5.6 63 1016.3(1.2/3h) 7 1/8 -- --
08:00 23.6 23.6 18.9 NO 3.7 3.7 5.6 75 1015.8(1.2/3h) 7 2/8 -- --
07:00 21.1 21.1 18.4 O 3.7 3.7 5.6 85 1015.8(1.4/3h) 10 2/8 -- --
06:00 20.5 20.5 17.7 NNO 1.9 7.4 9.3 84 1015.5(0.9/3h) 20 2/8 0/0h
--
05:00 20.5 20.5 16.8 SO 3.7 5.6 5.6 79 1015(1.0/3h) 20 4/8 -- --
04:00 21.5 21.5 16.8 NNO 1.9 1.9 3.7 75 1014.3(0.7/3h) 20 -- -- --
03:00 19.2 19.2 16.9 NNO 1.9 0.0 0.0 87 1014.5(0.5/3h) 20 -- -- --
02:00 23.2 23.2 16.0 SSO 3.7 7.4 7.4 64 1013.7(0.0/3h) 20 -- -- --
01:00 24.5 24.5 16.3 S 7.4 7.4 9.3 60 1013.5(-0.3/3h) 20 -- -- --
00:00 24.5 24.5 17.4 S 5.6 -- -- 65 1013.7 20 -- 0/0h
--

1 Coordinated Universal Time. Actuellement il est 07:00 locale et 06:00 UTC.

2 Le vent souffle depuis la direction indiquée vers la direction oposée.

3 Les rafales max. sont disponible 40 min après l'heure du relevé.

4 Pour les stations d'altitude (plus de 600m) le géopotentiel du niveau le plus proche de la pression obligatoire est indiqué.

5 Les stations disposant d'un diffuseur peuvent indiquer "trace". Cela signifie que des précipitations ont touchés le sol mais que la quantité est inférieure à 0.1 mm.

Récapitulatif de la journée
Température [°C] Vent [km/h] Ensoleillement4 [h] Precipitations totale5 [mm] Pression [Hpa]
Min1 Max.2 Moy.3 Max. Min Max.
18.9 29.2 2.4 9.3 0 h 0 min 0 1013.5 1019.2

1 Température minimale relevée entre 18:00 UTC la veille et 18:00 UTC le jour donné.

2 Température maximale relevée entre 06:00 UTC le jour donné et 06:00 UTC le lendemain.

3 Vent moyen de la journée basé sur les relevés horaires.

4 Ensoleillement en heures relevé entre 06:00 UTC la veille et 06:00 UTC le jour donné.

5 Précipitations totales tombées entre 06:00 UTC la jour donné et 06:00 UTC le lendemain.

Graphiques horaires